首页
METAR-TAF:

METAR-TAF

机场 :

塔布 盧爾德, 法国

纬度: 43-11N, 经度: 000-00W, 海拔: 379米

当前天气观测

该预报发布于37分钟前的10:30 UTC
风速7节,风向西,在西转西南西北之间变化
温度 14°C
湿度 82%
气压 1016 hPa
能见度10公里或以上
散云层高于1600英尺
散云层高于3300英尺
多云层高于6800英尺

METAR: LFBT 201030Z AUTO 28007KT 240V310 9999 SCT016 SCT033 BKN068 14/11 Q1016 BECMG SCT030TCU BKN050

时间: 13:07 (11:07 UTC)

预报

该预报发布于6小时和7分钟前的05:00 UTC
预报有效从20日的 06点(UTC)到 21日的 06点(UTC)
风速8节,风向西
能见度10公里或以上
多云层高于2000英尺
多云层高于3000英尺
几率 40% :
短暂存在
从 20日的 06点(UTC)到 20日的 10点(UTC)
能見度: 4000
阴天层高于1000英尺
小雨
成为
从 20日的 09点(UTC)到 20日的 11点(UTC)
散云层高于3000英尺, 塔状积云.
多云层高于5000英尺
成为
从 20日的 18点(UTC)到 20日的 20点(UTC)
多云层高于2800英尺
几率 30% :
短暂存在
从 20日的 17点(UTC)到 20日的 21点(UTC)
能見度: 4000
阵雨

TAF: LFBT 200500Z 2006/2106 26008KT 9999 BKN020 BKN030 PROB40 TEMPO 2006/2010 4000 -RA OVC010 BECMG 2009/2011 SCT030TCU BKN050 BECMG 2018/2020 BKN028 PROB30 TEMPO 2017/2021 4000 SHRA

超过4000个机场的气象观测和天气预报(METAR&TAF报告)。

可查询的气象台以黄色和红色小点在地图上表示。

将鼠标移到小点上方,可查看气象台名称。

然后点击查看天气观测和预报。

如需切换地图:点击带黑十字的绿色按钮放大地图;点击带横线的绿色按钮缩小地图;或者点击绿色箭头查看邻近地区的地图。


METAR-TAF: